createdAt,value
2023-01-05T00:01:04.641Z,10.84
2023-01-05T00:03:32.890Z,10.84
2023-01-05T00:06:05.164Z,10.87
2023-01-05T00:08:37.000Z,10.85
2023-01-05T00:11:38.117Z,10.88
2023-01-05T00:14:26.049Z,11.03
2023-01-05T00:17:12.173Z,11.04
2023-01-05T00:19:58.432Z,10.80
2023-01-05T00:22:34.716Z,10.86
2023-01-05T00:25:12.232Z,10.93
2023-01-05T00:27:45.523Z,10.74
2023-01-05T00:30:15.353Z,10.66
2023-01-05T00:32:43.652Z,10.65
2023-01-05T00:35:12.334Z,10.84
2023-01-05T00:37:40.488Z,10.70
2023-01-05T00:40:10.700Z,10.78
2023-01-05T00:42:38.472Z,10.77
2023-01-05T00:45:07.442Z,10.42
2023-01-05T00:47:34.940Z,10.42
2023-01-05T00:50:02.639Z,10.61
2023-01-05T00:52:30.356Z,10.83
2023-01-05T00:54:57.759Z,10.74
2023-01-05T00:57:25.572Z,10.72
2023-01-05T00:59:53.629Z,10.78
2023-01-05T01:02:21.262Z,10.82
2023-01-05T01:04:49.717Z,10.93
2023-01-05T01:07:17.358Z,10.78
2023-01-05T01:09:44.804Z,10.95
2023-01-05T01:12:12.298Z,10.94
2023-01-05T01:14:41.368Z,10.87
2023-01-05T01:17:08.780Z,10.85
2023-01-05T01:19:36.859Z,10.72
2023-01-05T01:22:04.866Z,10.77
2023-01-05T01:24:33.574Z,10.72
2023-01-05T01:27:00.949Z,10.76
2023-01-05T01:29:29.610Z,10.94
2023-01-05T01:31:56.972Z,10.64
2023-01-05T01:34:24.655Z,10.73
2023-01-05T01:36:55.634Z,10.72
2023-01-05T01:39:23.713Z,10.76
2023-01-05T01:41:51.709Z,10.93
2023-01-05T01:44:47.657Z,10.76
2023-01-05T01:47:33.698Z,10.96
2023-01-05T01:50:05.789Z,10.75
2023-01-05T01:52:33.762Z,10.86
2023-01-05T01:55:02.488Z,10.98
2023-01-05T01:57:30.112Z,11.00
2023-01-05T01:59:59.507Z,10.70
2023-01-05T02:02:28.578Z,10.67
2023-01-05T02:05:00.339Z,10.81
2023-01-05T02:07:30.294Z,10.76
2023-01-05T02:09:58.077Z,10.58
2023-01-05T02:12:53.450Z,10.57
2023-01-05T02:15:40.170Z,10.54
2023-01-05T02:18:27.714Z,10.22
2023-01-05T02:21:16.736Z,10.44
2023-01-05T02:24:18.877Z,10.62
2023-01-05T02:27:05.529Z,10.64
2023-01-05T02:29:52.252Z,10.54
2023-01-05T02:32:23.206Z,10.66
2023-01-05T02:34:56.687Z,10.60
2023-01-05T02:37:28.169Z,10.49
2023-01-05T02:40:05.506Z,10.59
2023-01-05T02:42:35.813Z,10.75
2023-01-05T02:45:07.743Z,10.70
2023-01-05T02:47:38.416Z,10.76
2023-01-05T02:50:11.193Z,10.76
2023-01-05T02:52:42.873Z,10.75
2023-01-05T02:55:13.637Z,10.85
2023-01-05T02:57:48.460Z,10.54
2023-01-05T03:00:38.382Z,10.59
2023-01-05T03:03:22.068Z,10.71
2023-01-05T03:05:56.374Z,10.70
2023-01-05T03:08:32.447Z,10.68
2023-01-05T03:11:22.330Z,10.25
2023-01-05T03:14:20.691Z,10.44
2023-01-05T03:16:50.193Z,10.43
2023-01-05T03:19:38.463Z,10.43
2023-01-05T03:22:34.105Z,10.50
2023-01-05T03:25:22.504Z,10.62
2023-01-05T03:28:10.044Z,10.71
2023-01-05T03:31:05.542Z,10.69
2023-01-05T03:34:01.986Z,10.71
2023-01-05T03:36:31.389Z,10.62
2023-01-05T03:39:01.030Z,10.60
2023-01-05T03:41:31.017Z,10.42
2023-01-05T03:43:58.973Z,10.61
2023-01-05T03:46:28.032Z,10.79
2023-01-05T03:48:55.511Z,10.59
2023-01-05T03:51:23.729Z,10.60
2023-01-05T03:53:51.196Z,10.47
2023-01-05T03:56:18.786Z,10.66
2023-01-05T03:58:46.558Z,10.58
2023-01-05T04:01:14.632Z,10.61
2023-01-05T04:03:43.180Z,10.71
2023-01-05T04:06:11.567Z,10.73
2023-01-05T04:08:39.355Z,10.57
2023-01-05T04:11:14.969Z,10.64
2023-01-05T04:13:44.553Z,10.87
2023-01-05T04:16:12.893Z,10.88
2023-01-05T04:18:41.097Z,10.64
2023-01-05T04:21:09.973Z,10.80
2023-01-05T04:23:38.405Z,10.80
2023-01-05T04:26:06.015Z,10.63
2023-01-05T04:28:33.842Z,10.59
2023-01-05T04:31:01.984Z,10.53
2023-01-05T04:33:30.185Z,10.81
2023-01-05T04:35:58.508Z,10.84
2023-01-05T04:38:26.528Z,10.81
2023-01-05T04:40:54.132Z,10.70
2023-01-05T04:43:24.173Z,10.65
2023-01-05T04:45:51.935Z,10.69
2023-01-05T04:48:19.662Z,10.50
2023-01-05T04:50:53.650Z,10.75
2023-01-05T04:53:23.318Z,10.79
2023-01-05T04:55:51.748Z,10.94
2023-01-05T04:58:20.631Z,10.71
2023-01-05T05:00:49.794Z,10.61
2023-01-05T05:03:17.900Z,10.46
2023-01-05T05:05:45.476Z,10.50
2023-01-05T05:08:14.435Z,10.46
2023-01-05T05:10:41.912Z,10.56
2023-01-05T05:13:09.416Z,10.61
2023-01-05T05:15:38.597Z,10.66
2023-01-05T05:18:09.423Z,10.69
2023-01-05T05:20:41.833Z,10.53
2023-01-05T05:23:09.588Z,10.55
2023-01-05T05:25:37.622Z,10.50
2023-01-05T05:28:05.563Z,10.51
2023-01-05T05:30:32.997Z,10.55
2023-01-05T05:33:00.652Z,10.58
2023-01-05T05:35:28.028Z,10.71
2023-01-05T05:37:56.902Z,10.84
2023-01-05T05:40:26.268Z,10.58
2023-01-05T05:42:54.151Z,10.54
2023-01-05T05:45:21.509Z,10.42
2023-01-05T05:47:49.158Z,10.41
2023-01-05T05:50:16.697Z,10.48
2023-01-05T05:52:47.315Z,10.48
2023-01-05T05:55:15.046Z,10.51
2023-01-05T05:57:42.456Z,10.55
2023-01-05T06:00:10.443Z,10.51
2023-01-05T06:02:40.223Z,10.52
2023-01-05T06:05:08.438Z,10.55
2023-01-05T06:07:35.864Z,10.62
2023-01-05T06:10:03.330Z,10.53
2023-01-05T06:12:31.098Z,10.58
2023-01-05T06:14:58.599Z,10.62
2023-01-05T06:17:26.001Z,10.58
2023-01-05T06:19:53.848Z,10.54
2023-01-05T06:22:21.307Z,10.47
2023-01-05T06:24:48.716Z,10.60
2023-01-05T06:27:16.403Z,10.45
2023-01-05T06:29:43.848Z,10.33
2023-01-05T06:32:11.202Z,10.35
2023-01-05T06:34:38.866Z,10.24
2023-01-05T06:37:06.514Z,10.19
2023-01-05T06:39:33.958Z,10.20
2023-01-05T06:42:01.775Z,10.13
2023-01-05T06:44:29.171Z,10.09
2023-01-05T06:46:56.594Z,10.11
2023-01-05T06:49:24.284Z,10.11
2023-01-05T06:51:51.781Z,10.09
2023-01-05T06:54:19.145Z,9.90
2023-01-05T06:56:46.832Z,9.88
2023-01-05T06:59:14.257Z,9.80
2023-01-05T07:01:41.729Z,9.77
2023-01-05T07:04:09.591Z,9.83
2023-01-05T07:06:37.050Z,9.74
2023-01-05T07:09:04.462Z,9.71
2023-01-05T07:11:32.182Z,9.69
2023-01-05T07:13:59.606Z,9.72
2023-01-05T07:16:27.032Z,9.74
2023-01-05T07:18:54.894Z,9.70
2023-01-05T07:21:22.273Z,9.70
2023-01-05T07:23:49.640Z,9.57
2023-01-05T07:26:17.371Z,9.60
2023-01-05T07:28:44.813Z,9.78
2023-01-05T07:31:12.365Z,9.77
2023-01-05T07:33:40.533Z,9.60
2023-01-05T07:36:08.655Z,9.30
2023-01-05T07:38:36.068Z,9.39
2023-01-05T07:41:04.069Z,9.65
2023-01-05T07:43:31.495Z,9.72
2023-01-05T07:46:03.774Z,9.70
2023-01-05T07:48:31.585Z,9.69
2023-01-05T07:51:03.327Z,9.89
2023-01-05T07:53:34.662Z,9.93
2023-01-05T07:56:06.966Z,9.93
2023-01-05T07:58:34.351Z,10.08
2023-01-05T08:01:10.105Z,9.82
2023-01-05T08:03:38.013Z,10.16
2023-01-05T08:06:09.099Z,9.91
2023-01-05T08:08:36.577Z,9.93
2023-01-05T08:11:05.877Z,9.99
2023-01-05T08:13:52.411Z,10.16
2023-01-05T08:16:20.432Z,10.16
2023-01-05T08:18:48.107Z,10.21
2023-01-05T08:21:15.846Z,10.39
2023-01-05T08:23:45.849Z,10.39
2023-01-05T08:26:15.984Z,10.53
2023-01-05T08:28:44.245Z,10.83
2023-01-05T08:31:16.341Z,11.09
2023-01-05T08:33:43.954Z,11.37
2023-01-05T08:36:13.786Z,11.61
2023-01-05T08:38:50.365Z,11.88
2023-01-05T08:41:22.078Z,12.09
2023-01-05T08:43:54.161Z,12.27
2023-01-05T08:46:23.827Z,12.14
2023-01-05T08:48:53.554Z,12.23
2023-01-05T08:51:21.089Z,12.43
2023-01-05T08:53:49.429Z,12.20
2023-01-05T08:56:16.924Z,12.40
2023-01-05T08:58:44.664Z,12.81
2023-01-05T09:01:15.121Z,12.76
2023-01-05T09:03:42.969Z,12.62
2023-01-05T09:06:12.489Z,12.50
2023-01-05T09:08:41.836Z,12.24
2023-01-05T09:11:14.765Z,12.21
2023-01-05T09:13:49.763Z,12.02
2023-01-05T09:16:42.451Z,11.61
2023-01-05T09:19:07.185Z,11.93
2023-01-05T09:21:34.692Z,11.61
2023-01-05T09:24:02.077Z,11.57
2023-01-05T09:26:29.785Z,11.51
2023-01-05T09:28:57.145Z,11.39
2023-01-05T09:31:24.578Z,11.74
2023-01-05T09:33:52.333Z,11.51
2023-01-05T09:36:19.791Z,11.30
2023-01-05T09:38:51.402Z,11.38
2023-01-05T09:41:28.731Z,11.53
2023-01-05T09:43:59.307Z,11.77
2023-01-05T09:46:35.410Z,11.75
2023-01-05T09:49:05.350Z,11.75
2023-01-05T09:51:33.478Z,11.80
2023-01-05T09:54:01.579Z,11.95
2023-01-05T09:59:26.453Z,11.57
2023-01-05T10:01:56.205Z,11.49
2023-01-05T10:04:30.584Z,11.66
2023-01-05T10:07:08.068Z,11.92
2023-01-05T10:09:39.152Z,11.97
2023-01-05T10:12:28.530Z,11.91
2023-01-05T10:15:00.997Z,11.79
2023-01-05T10:17:41.245Z,11.37
2023-01-05T10:20:33.122Z,11.61
2023-01-05T10:23:13.761Z,11.67
2023-01-05T10:26:24.763Z,11.97
2023-01-05T10:29:16.026Z,12.06
2023-01-05T10:31:47.082Z,12.00
2023-01-05T10:34:25.162Z,12.19
2023-01-05T10:37:27.120Z,12.35
2023-01-05T10:39:57.872Z,12.28
2023-01-05T10:42:46.419Z,12.06
2023-01-05T10:45:15.449Z,12.16
2023-01-05T10:47:45.313Z,12.13
2023-01-05T10:50:32.095Z,12.32
2023-01-05T10:53:02.023Z,12.15
2023-01-05T10:55:30.238Z,12.17
2023-01-05T10:57:57.628Z,11.80
2023-01-05T11:00:40.408Z,12.23
2023-01-05T11:03:10.083Z,12.44
2023-01-05T11:05:39.690Z,12.05
2023-01-05T11:08:22.145Z,11.26
2023-01-05T11:10:50.877Z,11.74
2023-01-05T11:13:27.514Z,11.79
2023-01-05T11:15:59.785Z,11.94
2023-01-05T11:19:01.802Z,11.83
2023-01-05T11:21:35.398Z,11.92
2023-01-05T11:24:03.836Z,12.04
2023-01-05T11:26:36.900Z,11.62
2023-01-05T11:29:10.347Z,11.48
2023-01-05T11:31:44.961Z,11.51
2023-01-05T11:34:27.651Z,11.67
2023-01-05T11:37:07.401Z,11.77
2023-01-05T11:39:47.535Z,11.48
2023-01-05T11:42:25.047Z,11.43
2023-01-05T11:45:05.462Z,11.21
2023-01-05T11:47:44.855Z,11.15
2023-01-05T11:50:22.035Z,11.30
2023-01-05T11:52:55.072Z,11.08
2023-01-05T11:55:38.269Z,11.44
2023-01-05T11:58:12.243Z,11.28
2023-01-05T12:01:01.632Z,11.66
2023-01-05T12:03:41.732Z,11.46
2023-01-05T12:06:45.882Z,11.74
2023-01-05T12:09:20.187Z,11.83
2023-01-05T12:11:57.175Z,11.79
2023-01-05T12:14:52.782Z,11.72
2023-01-05T12:17:27.645Z,11.47
2023-01-05T12:20:37.404Z,11.50
2023-01-05T12:23:10.879Z,11.42
2023-01-05T12:25:56.882Z,11.24
2023-01-05T12:29:34.810Z,10.88
2023-01-05T12:35:07.669Z,11.48
2023-01-05T12:38:03.472Z,11.43
2023-01-05T12:41:09.245Z,11.14
2023-01-05T12:43:36.934Z,11.25
2023-01-05T12:46:23.501Z,11.27
2023-01-05T12:49:05.165Z,11.23
2023-01-05T12:52:13.680Z,11.03
2023-01-05T12:54:50.054Z,11.35
2023-01-05T12:57:25.024Z,11.38
2023-01-05T12:59:53.391Z,11.57
2023-01-05T13:02:37.095Z,11.43
2023-01-05T13:05:14.372Z,11.27
2023-01-05T13:07:47.745Z,11.48
2023-01-05T13:10:45.702Z,11.83
2023-01-05T13:13:15.379Z,11.74
2023-01-05T13:15:50.830Z,11.63
2023-01-05T13:18:19.231Z,11.79
2023-01-05T13:20:53.664Z,11.52
2023-01-05T13:23:25.527Z,11.81
2023-01-05T13:26:00.168Z,11.73
2023-01-05T13:28:29.999Z,11.47
2023-01-05T13:31:16.162Z,11.37
2023-01-05T13:34:22.278Z,11.52
2023-01-05T13:37:11.555Z,11.29
2023-01-05T13:39:50.915Z,11.36
2023-01-05T13:42:32.979Z,11.37
2023-01-05T13:45:09.085Z,11.50
2023-01-05T13:47:49.252Z,11.55
2023-01-05T13:50:45.873Z,11.56
2023-01-05T13:55:57.809Z,11.57
2023-01-05T13:58:46.235Z,11.34
2023-01-05T14:01:16.266Z,11.23
2023-01-05T14:03:50.702Z,11.23
2023-01-05T14:06:27.426Z,11.25
2023-01-05T14:11:32.392Z,11.52
2023-01-05T14:14:20.143Z,11.22
2023-01-05T14:16:48.721Z,11.17
2023-01-05T14:22:21.893Z,10.94
2023-01-05T14:24:49.822Z,10.85
2023-01-05T14:27:24.561Z,10.78
2023-01-05T14:29:52.392Z,10.62
2023-01-05T14:32:28.430Z,10.84
2023-01-05T14:37:36.497Z,10.98
2023-01-05T14:40:18.224Z,10.70
2023-01-05T14:42:47.967Z,10.85
2023-01-05T14:45:22.762Z,10.61
2023-01-05T14:47:52.783Z,10.87
2023-01-05T14:50:43.829Z,10.81
2023-01-05T14:53:14.440Z,10.95
2023-01-05T14:56:03.372Z,11.13
2023-01-05T14:58:33.569Z,10.82
2023-01-05T15:01:19.137Z,10.95
2023-01-05T15:04:11.662Z,11.00
2023-01-05T15:06:42.272Z,10.78
2023-01-05T15:09:21.955Z,10.64
2023-01-05T15:12:23.942Z,10.73
2023-01-05T15:14:54.527Z,10.60
2023-01-05T15:17:30.978Z,10.88
2023-01-05T15:20:13.415Z,10.93
2023-01-05T15:23:03.655Z,10.47
2023-01-05T15:25:30.917Z,10.96
2023-01-05T15:28:17.326Z,10.86
2023-01-05T15:30:53.266Z,10.88
2023-01-05T15:33:30.524Z,10.76
2023-01-05T15:36:02.063Z,11.21
2023-01-05T15:38:30.782Z,11.09
2023-01-05T15:41:09.561Z,11.20
2023-01-05T15:43:39.595Z,10.88
2023-01-05T15:46:07.450Z,10.80
2023-01-05T15:48:38.505Z,11.02
2023-01-05T15:51:06.505Z,11.12
2023-01-05T15:53:38.077Z,10.90
2023-01-05T15:56:27.083Z,11.09
2023-01-05T15:58:54.522Z,11.14
2023-01-05T16:01:22.339Z,10.87
2023-01-05T16:03:50.480Z,10.88
2023-01-05T16:06:22.507Z,11.16
2023-01-05T16:08:52.362Z,11.09
2023-01-05T16:11:32.513Z,11.01
2023-01-05T16:14:04.616Z,11.01
2023-01-05T16:16:51.990Z,10.93
2023-01-05T16:19:28.013Z,10.78
2023-01-05T16:22:12.732Z,11.18
2023-01-05T16:24:51.814Z,11.45
2023-01-05T16:27:19.387Z,11.44
2023-01-05T16:29:48.502Z,11.18
2023-01-05T16:32:30.737Z,11.41
2023-01-05T16:35:33.075Z,11.18
2023-01-05T16:38:09.733Z,11.18
2023-01-05T16:41:03.500Z,11.50
2023-01-05T16:43:41.529Z,11.54
2023-01-05T16:46:16.655Z,11.63
2023-01-05T16:48:48.175Z,11.39
2023-01-05T16:51:21.625Z,11.64
2023-01-05T16:53:55.414Z,11.51
2023-01-05T16:56:57.842Z,11.64
2023-01-05T16:59:47.743Z,11.45
2023-01-05T17:02:38.493Z,11.30
2023-01-05T17:05:06.819Z,11.11
2023-01-05T17:07:38.249Z,11.16
2023-01-05T17:10:07.605Z,11.01
2023-01-05T17:12:35.349Z,11.15
2023-01-05T17:15:05.769Z,11.09
2023-01-05T17:17:33.455Z,10.77
2023-01-05T17:20:01.147Z,10.95
2023-01-05T17:22:29.005Z,10.87
2023-01-05T17:24:56.479Z,11.10
2023-01-05T17:27:24.221Z,11.19
2023-01-05T17:29:53.207Z,11.15
2023-01-05T17:32:20.733Z,11.17
2023-01-05T17:34:48.417Z,11.12
2023-01-05T17:37:16.632Z,10.95
2023-01-05T17:39:44.081Z,11.06
2023-01-05T17:42:30.023Z,10.79
2023-01-05T17:44:57.413Z,11.11
2023-01-05T17:47:25.065Z,10.70
2023-01-05T17:49:52.471Z,10.88
2023-01-05T17:52:19.837Z,11.14
2023-01-05T17:54:47.595Z,10.86
2023-01-05T17:57:15.048Z,10.75
2023-01-05T17:59:44.607Z,10.98
2023-01-05T18:02:12.374Z,10.83
2023-01-05T18:04:40.247Z,10.92
2023-01-05T18:09:37.963Z,11.09
2023-01-05T18:12:06.042Z,10.94
2023-01-05T18:14:33.469Z,10.35
2023-01-05T18:17:00.945Z,10.43
2023-01-05T18:19:29.472Z,10.43
2023-01-05T18:21:58.978Z,10.84
2023-01-05T18:24:26.636Z,10.83
2023-01-05T18:26:55.903Z,10.80
2023-01-05T18:29:23.615Z,10.68
2023-01-05T18:31:50.977Z,10.60
2023-01-05T18:34:18.815Z,10.85
2023-01-05T18:36:47.318Z,10.81
2023-01-05T18:39:16.381Z,10.58
2023-01-05T18:41:44.349Z,10.54
2023-01-05T18:44:11.753Z,10.68
2023-01-05T18:46:39.253Z,10.79
2023-01-05T18:49:07.042Z,10.55
2023-01-05T18:51:34.457Z,10.69
2023-01-05T18:54:01.865Z,10.40
2023-01-05T18:56:29.573Z,10.62
2023-01-05T18:58:57.481Z,10.47
2023-01-05T19:01:25.361Z,10.83
2023-01-05T19:03:53.731Z,10.56
2023-01-05T19:06:25.828Z,10.67
2023-01-05T19:08:53.533Z,10.84
2023-01-05T19:11:26.052Z,10.63
2023-01-05T19:13:59.466Z,10.55
2023-01-05T19:16:29.514Z,10.45
2023-01-05T19:19:04.982Z,10.39
2023-01-05T19:21:34.071Z,10.40
2023-01-05T19:24:02.340Z,10.61
2023-01-05T19:26:32.040Z,10.61
2023-01-05T19:29:01.264Z,10.78
2023-01-05T19:31:30.334Z,10.57
2023-01-05T19:34:00.561Z,10.50
2023-01-05T19:36:32.372Z,10.39
2023-01-05T19:39:27.209Z,10.70
2023-01-05T19:41:54.844Z,10.32
2023-01-05T19:44:22.830Z,10.36
2023-01-05T19:46:53.175Z,10.68
2023-01-05T19:49:27.698Z,10.56
2023-01-05T19:51:55.839Z,10.58
2023-01-05T19:54:25.477Z,10.65
2023-01-05T19:56:54.666Z,10.68
2023-01-05T19:59:26.221Z,10.40
2023-01-05T20:01:56.099Z,10.64
2023-01-05T20:04:24.035Z,10.52
2023-01-05T20:06:51.445Z,10.40
2023-01-05T20:09:19.359Z,10.35
2023-01-05T20:11:49.171Z,10.77
2023-01-05T20:14:21.911Z,10.40
2023-01-05T20:16:55.430Z,10.22
2023-01-05T20:19:25.753Z,10.18
2023-01-05T20:21:54.874Z,10.48
2023-01-05T20:24:25.270Z,10.70
2023-01-05T20:26:55.895Z,10.43
2023-01-05T20:29:23.927Z,10.45
2023-01-05T20:31:54.405Z,10.13
2023-01-05T20:34:23.698Z,10.29
2023-01-05T20:36:51.283Z,10.46
2023-01-05T20:39:22.051Z,10.20
2023-01-05T20:41:51.534Z,10.08
2023-01-05T20:44:21.678Z,10.34
2023-01-05T20:46:50.469Z,10.40
2023-01-05T20:49:18.312Z,10.45
2023-01-05T20:51:46.105Z,10.19
2023-01-05T20:54:14.256Z,10.48
2023-01-05T20:56:43.712Z,10.47
2023-01-05T20:59:14.062Z,10.47
2023-01-05T21:01:42.095Z,10.30
2023-01-05T21:04:09.535Z,10.19
2023-01-05T21:06:37.200Z,9.95
2023-01-05T21:09:05.532Z,10.26
2023-01-05T21:11:32.913Z,10.50
2023-01-05T21:14:00.998Z,10.44
2023-01-05T21:16:36.240Z,10.28
2023-01-05T21:19:05.546Z,10.17
2023-01-05T21:21:34.489Z,10.22
2023-01-05T21:24:02.759Z,10.33
2023-01-05T21:26:30.188Z,10.09
2023-01-05T21:28:57.877Z,10.14
2023-01-05T21:31:26.064Z,10.26
2023-01-05T21:33:54.356Z,10.10
2023-01-05T21:36:24.700Z,10.10
2023-01-05T21:39:03.565Z,10.13
2023-01-05T21:41:51.063Z,10.03
2023-01-05T21:44:18.796Z,9.96
2023-01-05T21:46:47.443Z,9.80
2023-01-05T21:49:15.060Z,9.86
2023-01-05T21:52:01.615Z,10.08
2023-01-05T21:54:48.416Z,9.97
2023-01-05T21:57:15.884Z,10.30
2023-01-05T21:59:43.773Z,10.18
2023-01-05T22:02:11.784Z,10.35
2023-01-05T22:04:39.596Z,9.99
2023-01-05T22:07:07.443Z,10.14
2023-01-05T22:09:35.668Z,10.22
2023-01-05T22:12:07.182Z,10.09
2023-01-05T22:14:36.234Z,9.81
2023-01-05T22:17:05.525Z,10.00
2023-01-05T22:19:33.259Z,9.90
2023-01-05T22:22:00.664Z,9.97
2023-01-05T22:24:29.941Z,10.20
2023-01-05T22:26:57.296Z,10.16
2023-01-05T22:29:25.176Z,10.33
2023-01-05T22:31:52.989Z,10.25
2023-01-05T22:34:20.537Z,10.16
2023-01-05T22:36:49.013Z,9.75
2023-01-05T22:39:17.210Z,9.84
2023-01-05T22:41:46.407Z,10.38
2023-01-05T22:44:13.884Z,10.60
2023-01-05T22:46:41.690Z,10.75
2023-01-05T22:49:13.027Z,10.73
2023-01-05T22:51:44.699Z,11.20
2023-01-05T22:54:12.399Z,11.24
2023-01-05T22:56:40.038Z,11.06
2023-01-05T22:59:07.941Z,11.25
2023-01-05T23:01:43.111Z,11.21
2023-01-05T23:04:11.616Z,11.26
2023-01-05T23:06:39.391Z,11.52
2023-01-05T23:09:09.302Z,11.51
2023-01-05T23:11:39.276Z,11.48
2023-01-05T23:14:08.714Z,11.21
2023-01-05T23:16:36.586Z,11.11
2023-01-05T23:19:05.683Z,11.50
2023-01-05T23:21:33.343Z,11.54
2023-01-05T23:24:00.990Z,11.54
2023-01-05T23:26:29.040Z,11.56
2023-01-05T23:28:56.711Z,11.43
2023-01-05T23:31:24.409Z,11.26
2023-01-05T23:33:52.079Z,11.43
2023-01-05T23:36:20.449Z,11.35
2023-01-05T23:38:48.334Z,11.29
2023-01-05T23:41:17.351Z,11.46
2023-01-05T23:43:45.785Z,11.12
2023-01-05T23:46:20.103Z,11.36
2023-01-05T23:48:49.130Z,11.28
2023-01-05T23:51:18.213Z,11.10
2023-01-05T23:53:48.345Z,11.18
2023-01-05T23:56:18.714Z,11.09
2023-01-05T23:58:47.072Z,10.97
